createdAt,value
2017-06-21T00:02:39.667Z,0
2017-06-21T00:12:55.362Z,0
2017-06-21T00:23:09.818Z,0
2017-06-21T00:33:23.603Z,0
2017-06-21T00:43:37.608Z,0
2017-06-21T00:53:52.339Z,0
2017-06-21T01:04:06.929Z,0
2017-06-21T01:14:21.921Z,0
2017-06-21T01:24:35.990Z,0
2017-06-21T01:34:50.166Z,0
2017-06-21T01:45:03.952Z,0
2017-06-21T01:55:19.088Z,0
2017-06-21T02:05:33.018Z,0
2017-06-21T02:15:48.441Z,0
2017-06-21T02:26:03.042Z,0
2017-06-21T02:36:16.858Z,0
2017-06-21T02:46:32.575Z,0
2017-06-21T02:56:47.079Z,5
2017-06-21T03:07:00.996Z,10
2017-06-21T03:17:15.313Z,20
2017-06-21T03:27:29.922Z,40
2017-06-21T03:37:43.774Z,55
2017-06-21T03:47:59.400Z,75
2017-06-21T03:58:14.960Z,95
2017-06-21T04:08:30.364Z,115
2017-06-21T04:18:45.322Z,140
2017-06-21T04:29:00.700Z,160
2017-06-21T04:39:15.305Z,180
2017-06-21T04:49:29.583Z,220
2017-06-21T04:59:45.229Z,225
2017-06-21T05:10:00.726Z,245
2017-06-21T05:20:15.122Z,265
2017-06-21T05:30:29.355Z,290
2017-06-21T05:40:43.406Z,330
2017-06-21T05:50:59.080Z,340
2017-06-21T06:01:14.847Z,555
2017-06-21T06:11:30.215Z,700
2017-06-21T06:21:43.874Z,910
2017-06-21T06:31:57.730Z,885
2017-06-21T06:42:13.407Z,1025
2017-06-21T06:52:27.497Z,1095
2017-06-21T07:02:42.040Z,1140
2017-06-21T07:12:56.381Z,1140
2017-06-21T07:23:11.919Z,1275
2017-06-21T07:33:26.775Z,1370
2017-06-21T07:43:41.503Z,1400
2017-06-21T07:53:56.468Z,1485
2017-06-21T08:04:11.912Z,1545
2017-06-21T08:14:26.957Z,1640
2017-06-21T08:24:41.736Z,1645
2017-06-21T08:34:57.422Z,1685
2017-06-21T08:45:12.043Z,1740
2017-06-21T08:55:26.176Z,1700
2017-06-21T09:05:41.126Z,1945
2017-06-21T09:15:55.389Z,1925
2017-06-21T09:26:10.446Z,1760
2017-06-21T09:36:25.122Z,2085
2017-06-21T09:46:40.352Z,1940
2017-06-21T09:56:55.339Z,1865
2017-06-21T10:07:09.788Z,1925
2017-06-21T10:17:25.362Z,2150
2017-06-21T10:27:39.776Z,2105
2017-06-21T10:37:55.163Z,1895
2017-06-21T10:48:10.774Z,2030
2017-06-21T10:58:25.968Z,1900
2017-06-21T11:08:40.680Z,2390
2017-06-21T11:18:55.970Z,2430
2017-06-21T11:29:11.366Z,2310
2017-06-21T11:39:27.092Z,1680
2017-06-21T11:59:58.839Z,2120
2017-06-21T12:10:14.848Z,2215
2017-06-21T12:20:28.933Z,2100
2017-06-21T12:30:44.610Z,2225
2017-06-21T12:40:59.300Z,2165
2017-06-21T12:51:14.933Z,2045
2017-06-21T13:01:29.144Z,1940
2017-06-21T13:11:43.842Z,1960
2017-06-21T13:21:58.397Z,1435
2017-06-21T13:32:12.497Z,1455
2017-06-21T13:42:28.061Z,1415
2017-06-21T13:52:42.753Z,1305
2017-06-21T14:02:56.940Z,1195
2017-06-21T14:13:11.578Z,1220
2017-06-21T14:33:40.475Z,1380
2017-06-21T14:43:56.278Z,1785
2017-06-21T14:54:10.498Z,2340
2017-06-21T15:04:26.072Z,1515
2017-06-21T15:14:40.749Z,1325
2017-06-21T15:24:55.429Z,1385
2017-06-21T15:35:09.535Z,1405
2017-06-21T15:45:23.698Z,1355
2017-06-21T15:55:39.039Z,1380
2017-06-21T16:05:53.576Z,1225
2017-06-21T16:16:09.222Z,1210
2017-06-21T16:26:24.953Z,995
2017-06-21T16:36:40.850Z,1140
2017-06-21T16:46:55.510Z,505
2017-06-21T17:07:24.022Z,415
2017-06-21T17:17:38.032Z,360
2017-06-21T17:27:52.711Z,365
2017-06-21T17:38:07.554Z,325
2017-06-21T17:48:22.674Z,240
2017-06-21T17:58:38.299Z,210
2017-06-21T18:08:52.220Z,230
2017-06-21T18:19:06.509Z,200
2017-06-21T18:29:20.923Z,185
2017-06-21T18:39:36.455Z,170
2017-06-21T18:49:50.800Z,140
2017-06-21T19:00:04.996Z,95
2017-06-21T19:10:19.490Z,65
2017-06-21T19:20:35.270Z,50
2017-06-21T19:41:05.437Z,25
2017-06-21T19:51:20.279Z,10
2017-06-21T20:01:36.065Z,5
2017-06-21T20:11:51.593Z,0
2017-06-21T20:22:06.076Z,0
2017-06-21T20:32:19.996Z,0
2017-06-21T20:42:34.265Z,0
2017-06-21T20:52:48.102Z,0
2017-06-21T21:03:02.935Z,0
2017-06-21T21:13:16.817Z,0
2017-06-21T21:23:31.575Z,0
2017-06-21T21:33:46.193Z,0
2017-06-21T21:44:00.593Z,0
2017-06-21T21:54:15.531Z,0
2017-06-21T22:04:30.108Z,0
2017-06-21T22:14:44.441Z,0
2017-06-21T22:24:59.483Z,0
2017-06-21T22:35:14.907Z,0
2017-06-21T22:45:29.762Z,0
2017-06-21T22:55:45.054Z,0
2017-06-21T23:05:59.214Z,0
2017-06-21T23:16:14.441Z,0
2017-06-21T23:26:29.809Z,0
2017-06-21T23:36:45.361Z,0
2017-06-21T23:47:00.094Z,0
2017-06-21T23:57:15.090Z,0
